Time;durP1;ratioP1;P1;durP2;ratioP2;P2;SDS_P1;SDS_P2;PMS_P1;PMS_P2;Temp;Humidity;BMP_temperature;BMP_pressure;BME280_temperature;BME280_humidity;BME280_pressure;Samples;Min_cycle;Max_cycle;Signal;HPM_P1;HPM_P2
2023/12/23 00:01:23;;;;;;;7.35;6.63;;;;;;;;;;4950537;28;20269;-66
2023/12/23 00:03:49;;;;;;;9.25;6.95;;;;;;;;;;4949107;28;20046;-66
2023/12/23 00:06:14;;;;;;;7.60;6.90;;;;;;;;;;4946596;28;20637;-66
2023/12/23 00:08:40;;;;;;;7.15;6.55;;;;;;;;;;4951235;28;20622;-66
2023/12/23 00:11:06;;;;;;;7.07;6.47;;;;;;;;;;4943616;28;20494;-66
2023/12/23 00:13:32;;;;;;;8.45;6.80;;;;;;;;;;4947931;28;20027;-66
2023/12/23 00:15:57;;;;;;;7.50;6.85;;;;;;;;;;4945116;28;20479;-65
2023/12/23 00:18:24;;;;;;;6.40;5.80;;;;;;;;;;4951393;28;20039;-67
2023/12/23 00:20:49;;;;;;;7.30;6.53;;;;;;;;;;4949878;28;20042;-66
2023/12/23 00:23:15;;;;;;;7.43;6.72;;;;;;;;;;4949391;28;20035;-67
2023/12/23 00:25:40;;;;;;;7.05;6.43;;;;;;;;;;4940628;28;20077;-66
2023/12/23 00:28:06;;;;;;;7.85;6.97;;;;;;;;;;4961298;28;20035;-66
2023/12/23 00:30:32;;;;;;;14.00;6.97;;;;;;;;;;4946880;28;20606;-66
2023/12/23 00:32:58;;;;;;;7.30;6.68;;;;;;;;;;4963175;28;20041;-66
2023/12/23 00:35:26;;;;;;;6.85;6.32;;;;;;;;;;4947745;28;20047;-66
2023/12/23 00:37:52;;;;;;;7.47;6.82;;;;;;;;;;4955536;28;20039;-66
2023/12/23 00:40:18;;;;;;;7.30;6.60;;;;;;;;;;4962618;28;20105;-66
2023/12/23 00:42:44;;;;;;;7.10;6.60;;;;;;;;;;4962082;28;20093;-66
2023/12/23 00:45:10;;;;;;;8.05;6.72;;;;;;;;;;4963323;28;20050;-66
2023/12/23 00:47:35;;;;;;;7.43;6.82;;;;;;;;;;4954958;28;20047;-66
2023/12/23 00:50:01;;;;;;;10.20;7.03;;;;;;;;;;4970893;28;20041;-66
2023/12/23 00:52:28;;;;;;;7.85;7.00;;;;;;;;;;4962471;28;20081;-66
2023/12/23 00:54:59;;;;;;;7.50;6.65;;;;;;;;;;4953547;28;20047;-66
2023/12/23 00:57:25;;;;;;;7.22;6.53;;;;;;;;;;4952699;28;20034;-67
2023/12/23 00:59:51;;;;;;;8.68;6.38;;;;;;;;;;4966262;28;20027;-66
2023/12/23 01:02:17;;;;;;;7.22;6.60;;;;;;;;;;4941942;28;20046;-67
2023/12/23 01:04:42;;;;;;;7.15;6.40;;;;;;;;;;4954453;28;20528;-66
2023/12/23 01:07:10;;;;;;;7.93;6.50;;;;;;;;;;4956903;28;20263;-66
2023/12/23 01:09:35;;;;;;;6.80;6.20;;;;;;;;;;4964718;28;20042;-67
2023/12/23 01:12:01;;;;;;;9.07;7.00;;;;;;;;;;4964965;28;20056;-66
2023/12/23 01:14:26;;;;;;;5.95;5.53;;;;;;;;;;4963598;28;20062;-66
2023/12/23 01:16:52;;;;;;;6.93;6.40;;;;;;;;;;4953370;28;20058;-66
2023/12/23 01:19:18;;;;;;;6.95;6.45;;;;;;;;;;4950790;28;20047;-66
2023/12/23 01:21:44;;;;;;;7.38;6.75;;;;;;;;;;4962415;28;20035;-66
2023/12/23 01:24:09;;;;;;;7.00;6.50;;;;;;;;;;4964435;28;20525;-66
2023/12/23 01:26:35;;;;;;;7.13;6.53;;;;;;;;;;4947630;28;20038;-66
2023/12/23 01:29:00;;;;;;;7.55;6.90;;;;;;;;;;4974779;28;20034;-66
2023/12/23 01:31:27;;;;;;;7.47;6.82;;;;;;;;;;4965737;28;20121;-66
2023/12/23 01:33:53;;;;;;;7.18;6.65;;;;;;;;;;4952458;28;20023;-66
2023/12/23 01:36:18;;;;;;;6.97;6.57;;;;;;;;;;4964651;28;20420;-65
2023/12/23 01:38:44;;;;;;;6.60;6.05;;;;;;;;;;4971254;28;20541;-66
2023/12/23 01:41:09;;;;;;;7.10;6.35;;;;;;;;;;4968257;28;21018;-66
2023/12/23 01:43:35;;;;;;;6.75;5.93;;;;;;;;;;4953989;28;20044;-66
2023/12/23 01:46:01;;;;;;;6.57;6.18;;;;;;;;;;4969230;28;20046;-65
2023/12/23 01:48:31;;;;;;;6.60;6.20;;;;;;;;;;4967003;28;20027;-66
2023/12/23 01:50:59;;;;;;;6.40;5.80;;;;;;;;;;4967577;28;20511;-65
2023/12/23 01:53:26;;;;;;;6.78;6.20;;;;;;;;;;4945022;28;20035;-66
2023/12/23 01:55:54;;;;;;;7.18;6.47;;;;;;;;;;4968419;28;20037;-66
2023/12/23 01:58:21;;;;;;;6.82;6.30;;;;;;;;;;4957174;28;20066;-66
2023/12/23 02:00:46;;;;;;;6.55;6.13;;;;;;;;;;4961259;28;20492;-66
2023/12/23 02:03:13;;;;;;;7.47;6.85;;;;;;;;;;4952040;28;20078;-66
2023/12/23 02:05:38;;;;;;;7.68;6.45;;;;;;;;;;4950958;28;20043;-66
2023/12/23 02:08:06;;;;;;;7.60;7.03;;;;;;;;;;4969454;28;20041;-66
2023/12/23 02:10:32;;;;;;;7.55;6.85;;;;;;;;;;4952350;28;20035;-67
2023/12/23 02:13:10;;;;;;;9.95;7.35;;;;;;;;;;4954899;28;20114;-65
2023/12/23 02:15:37;;;;;;;7.60;6.88;;;;;;;;;;4965666;28;20093;-66
2023/12/23 02:18:03;;;;;;;6.80;6.30;;;;;;;;;;4977255;28;20042;-66
2023/12/23 02:20:29;;;;;;;9.80;6.53;;;;;;;;;;4972748;28;20045;-66
2023/12/23 02:22:55;;;;;;;7.35;6.70;;;;;;;;;;4971758;28;20027;-65
2023/12/23 02:25:22;;;;;;;7.55;6.85;;;;;;;;;;4971117;28;20097;-66
2023/12/23 02:27:52;;;;;;;7.43;6.72;;;;;;;;;;4970067;28;20069;-65
2023/12/23 02:30:20;;;;;;;7.25;6.65;;;;;;;;;;4970486;28;20049;-65
2023/12/23 02:32:46;;;;;;;7.28;6.55;;;;;;;;;;4949828;28;20552;-66
2023/12/23 02:35:12;;;;;;;7.38;6.60;;;;;;;;;;4954107;28;20111;-65
2023/12/23 02:37:38;;;;;;;10.00;6.90;;;;;;;;;;4960335;28;20121;-66
2023/12/23 02:40:04;;;;;;;7.90;7.10;;;;;;;;;;4974630;28;20183;-66
2023/12/23 02:42:31;;;;;;;6.93;6.47;;;;;;;;;;4965078;28;20031;-66
2023/12/23 02:44:56;;;;;;;7.38;6.68;;;;;;;;;;4967742;28;20042;-65
2023/12/23 02:47:22;;;;;;;7.78;6.90;;;;;;;;;;4970025;28;20503;-68
2023/12/23 02:49:47;;;;;;;7.55;6.80;;;;;;;;;;4943972;28;20046;-65
2023/12/23 02:52:14;;;;;;;7.35;6.82;;;;;;;;;;4948125;28;20047;-65
2023/12/23 02:54:39;;;;;;;10.57;7.10;;;;;;;;;;4955240;28;20086;-66
2023/12/23 02:57:06;;;;;;;6.63;6.18;;;;;;;;;;4971285;28;20812;-65
2023/12/23 02:59:31;;;;;;;7.38;6.75;;;;;;;;;;4970876;28;20053;-65
2023/12/23 03:01:57;;;;;;;6.78;6.13;;;;;;;;;;4966767;28;20466;-65
2023/12/23 03:04:22;;;;;;;6.70;6.10;;;;;;;;;;4949870;28;20104;-65
2023/12/23 03:06:48;;;;;;;6.75;6.20;;;;;;;;;;4968754;28;20044;-65
2023/12/23 03:09:13;;;;;;;6.78;6.30;;;;;;;;;;4970849;28;20062;-66
2023/12/23 03:11:39;;;;;;;6.88;6.45;;;;;;;;;;4943171;28;20046;-66
2023/12/23 03:14:05;;;;;;;7.40;6.63;;;;;;;;;;4972142;28;20030;-66
2023/12/23 03:16:34;;;;;;;6.78;6.38;;;;;;;;;;4949858;28;20078;-65
2023/12/23 03:19:00;;;;;;;7.13;6.63;;;;;;;;;;4955646;28;20039;-66
2023/12/23 03:21:26;;;;;;;6.40;6.03;;;;;;;;;;4948458;28;20153;-65
2023/12/23 03:23:52;;;;;;;10.05;6.65;;;;;;;;;;4965903;28;20058;-66
2023/12/23 03:26:18;;;;;;;7.38;6.75;;;;;;;;;;4965341;28;20078;-66
2023/12/23 03:28:44;;;;;;;7.00;6.40;;;;;;;;;;4960854;28;20066;-66
2023/12/23 03:31:10;;;;;;;7.43;6.72;;;;;;;;;;4969532;28;20041;-66
2023/12/23 03:33:35;;;;;;;8.05;7.22;;;;;;;;;;4963985;28;20087;-66
2023/12/23 03:36:01;;;;;;;7.15;6.55;;;;;;;;;;4951315;28;20038;-66
2023/12/23 03:38:27;;;;;;;7.88;6.78;;;;;;;;;;4964069;28;20046;-67
2023/12/23 03:40:53;;;;;;;7.10;6.50;;;;;;;;;;4968917;28;20042;-67
2023/12/23 03:43:18;;;;;;;6.97;6.32;;;;;;;;;;4957717;28;20038;-66
2023/12/23 03:45:45;;;;;;;6.90;6.28;;;;;;;;;;4959571;28;20054;-67
2023/12/23 03:48:11;;;;;;;6.70;6.20;;;;;;;;;;4947383;28;20039;-65
2023/12/23 03:50:36;;;;;;;7.18;6.40;;;;;;;;;;4962875;28;20039;-66
2023/12/23 03:53:02;;;;;;;7.18;6.50;;;;;;;;;;4950263;28;20035;-66
2023/12/23 03:55:32;;;;;;;6.80;6.28;;;;;;;;;;4952477;28;20097;-66
2023/12/23 03:58:02;;;;;;;6.65;6.15;;;;;;;;;;4957195;28;20042;-66
2023/12/23 04:00:30;;;;;;;6.57;5.93;;;;;;;;;;4949052;28;20093;-67
2023/12/23 04:02:57;;;;;;;6.95;6.28;;;;;;;;;;4941426;28;20043;-67
2023/12/23 04:05:22;;;;;;;6.72;6.18;;;;;;;;;;4934470;28;20048;-67
2023/12/23 04:07:49;;;;;;;7.25;6.30;;;;;;;;;;4948559;28;20039;-68
2023/12/23 04:10:15;;;;;;;6.55;6.15;;;;;;;;;;4957230;28;20049;-66
2023/12/23 04:12:41;;;;;;;6.93;6.32;;;;;;;;;;4944899;28;20042;-66
2023/12/23 04:15:07;;;;;;;6.70;6.20;;;;;;;;;;4956656;28;20085;-65
2023/12/23 04:17:34;;;;;;;7.35;5.93;;;;;;;;;;4947447;28;20050;-65
2023/12/23 04:20:00;;;;;;;6.75;6.15;;;;;;;;;;4940972;28;20104;-66
2023/12/23 04:22:26;;;;;;;6.78;6.35;;;;;;;;;;4932481;28;20441;-65
2023/12/23 04:24:51;;;;;;;6.10;5.80;;;;;;;;;;4950731;28;20050;-65
2023/12/23 04:27:17;;;;;;;6.82;6.22;;;;;;;;;;4964716;28;20082;-67
2023/12/23 04:29:43;;;;;;;8.50;7.03;;;;;;;;;;4956722;28;20042;-64
2023/12/23 04:32:09;;;;;;;6.88;6.35;;;;;;;;;;4954112;28;20041;-68
2023/12/23 04:34:37;;;;;;;6.78;6.38;;;;;;;;;;4949906;28;20043;-66
2023/12/23 04:37:03;;;;;;;7.07;6.57;;;;;;;;;;4954377;28;20042;-65
2023/12/23 04:39:29;;;;;;;6.88;6.32;;;;;;;;;;4961975;28;20547;-65
2023/12/23 04:41:55;;;;;;;7.03;6.43;;;;;;;;;;4934466;28;20046;-66
2023/12/23 04:44:22;;;;;;;6.90;6.30;;;;;;;;;;4960630;28;20031;-65
2023/12/23 04:46:49;;;;;;;7.03;6.53;;;;;;;;;;4937894;28;20047;-65
2023/12/23 04:49:15;;;;;;;6.93;6.45;;;;;;;;;;4956936;28;20604;-65
2023/12/23 04:51:43;;;;;;;7.38;6.60;;;;;;;;;;4939862;28;20089;-68
2023/12/23 04:54:13;;;;;;;7.22;6.60;;;;;;;;;;4948533;28;20039;-68
2023/12/23 04:56:39;;;;;;;7.65;6.93;;;;;;;;;;4943782;28;20043;-68
2023/12/23 04:59:06;;;;;;;6.82;6.35;;;;;;;;;;4944987;28;20560;-67
2023/12/23 05:01:32;;;;;;;7.00;6.53;;;;;;;;;;4957596;28;20071;-68
2023/12/23 05:03:58;;;;;;;6.75;6.35;;;;;;;;;;4956520;28;20039;-67
2023/12/23 05:06:23;;;;;;;7.72;6.93;;;;;;;;;;4946160;28;20544;-67
2023/12/23 05:08:49;;;;;;;6.53;6.13;;;;;;;;;;4956505;28;20133;-69
2023/12/23 05:11:14;;;;;;;7.07;6.43;;;;;;;;;;4942228;28;20073;-67
2023/12/23 05:13:40;;;;;;;6.90;6.45;;;;;;;;;;4956154;23;20042;-82
2023/12/23 05:16:06;;;;;;;6.65;6.03;;;;;;;;;;4930013;28;20055;-80
2023/12/23 05:18:32;;;;;;;7.30;6.70;;;;;;;;;;4952475;28;20030;-81
2023/12/23 05:20:57;;;;;;;6.25;5.95;;;;;;;;;;4960799;28;20096;-80
2023/12/23 05:23:23;;;;;;;7.10;6.60;;;;;;;;;;4967782;28;20031;-79
2023/12/23 05:25:50;;;;;;;6.90;6.50;;;;;;;;;;4944926;28;20046;-81
2023/12/23 05:28:16;;;;;;;6.85;6.40;;;;;;;;;;4973243;28;20098;-79
2023/12/23 05:30:42;;;;;;;6.90;6.50;;;;;;;;;;4971217;28;20070;-81
2023/12/23 05:33:08;;;;;;;6.30;6.00;;;;;;;;;;4971918;28;20059;-80
2023/12/23 05:35:33;;;;;;;6.65;6.35;;;;;;;;;;4943572;28;20042;-80
2023/12/23 05:37:59;;;;;;;7.00;6.60;;;;;;;;;;4938574;28;20043;-81
2023/12/23 05:40:25;;;;;;;6.45;6.15;;;;;;;;;;4952489;28;20050;-80
2023/12/23 05:42:50;;;;;;;6.85;6.35;;;;;;;;;;4920056;28;20035;-80
2023/12/23 05:45:16;;;;;;;6.20;5.90;;;;;;;;;;4948195;28;20538;-82
2023/12/23 05:47:43;;;;;;;6.85;6.25;;;;;;;;;;4953101;28;20050;-80
2023/12/23 05:50:10;;;;;;;6.45;6.10;;;;;;;;;;4974382;28;20039;-80
2023/12/23 05:52:35;;;;;;;6.75;6.25;;;;;;;;;;4970784;28;20031;-80
2023/12/23 05:55:01;;;;;;;6.53;6.10;;;;;;;;;;4966836;28;20460;-80
2023/12/23 05:57:27;;;;;;;7.07;6.68;;;;;;;;;;4950960;28;20125;-80
2023/12/23 05:59:53;;;;;;;6.05;5.75;;;;;;;;;;4969079;28;20050;-80
2023/12/23 06:02:18;;;;;;;6.50;6.10;;;;;;;;;;4949493;28;20031;-80
2023/12/23 06:04:44;;;;;;;6.20;5.90;;;;;;;;;;4967362;28;20035;-82
2023/12/23 06:07:10;;;;;;;6.05;5.75;;;;;;;;;;4984803;28;20055;-82
2023/12/23 06:09:36;;;;;;;6.40;6.10;;;;;;;;;;4974762;28;20273;-81
2023/12/23 06:12:02;;;;;;;6.20;5.90;;;;;;;;;;4966345;28;20027;-81
2023/12/23 06:14:28;;;;;;;6.05;5.75;;;;;;;;;;4962735;28;20678;-80
2023/12/23 06:16:54;;;;;;;6.18;5.88;;;;;;;;;;4962079;28;20046;-78
2023/12/23 06:19:19;;;;;;;6.30;5.82;;;;;;;;;;4944174;28;20050;-80
2023/12/23 06:21:48;;;;;;;6.45;6.10;;;;;;;;;;4968712;28;20038;-81
2023/12/23 06:24:13;;;;;;;6.40;6.10;;;;;;;;;;4941818;28;20046;-81
2023/12/23 06:26:39;;;;;;;6.72;6.43;;;;;;;;;;4950874;28;20046;-81
2023/12/23 06:29:05;;;;;;;6.60;6.30;;;;;;;;;;4936902;28;20038;-80
2023/12/23 06:31:32;;;;;;;6.47;6.18;;;;;;;;;;4967697;28;20035;-80
2023/12/23 06:33:57;;;;;;;6.82;6.43;;;;;;;;;;4968047;28;20035;-80
2023/12/23 06:36:23;;;;;;;6.53;6.13;;;;;;;;;;4945433;28;20043;-79
2023/12/23 06:38:48;;;;;;;6.50;6.10;;;;;;;;;;4939844;28;20109;-79
2023/12/23 06:41:14;;;;;;;6.90;6.50;;;;;;;;;;4962734;28;20111;-81
2023/12/23 06:43:40;;;;;;;6.03;5.72;;;;;;;;;;4971132;28;20034;-80
2023/12/23 06:46:10;;;;;;;6.30;6.00;;;;;;;;;;4949897;28;20475;-79
2023/12/23 06:48:36;;;;;;;6.20;5.90;;;;;;;;;;4949114;28;20035;-80
2023/12/23 06:51:01;;;;;;;6.35;6.05;;;;;;;;;;4936706;28;20145;-79
2023/12/23 06:53:27;;;;;;;6.78;6.38;;;;;;;;;;4970712;28;20469;-80
2023/12/23 06:55:52;;;;;;;6.50;6.10;;;;;;;;;;4966302;28;20038;-79
2023/12/23 06:58:18;;;;;;;6.60;6.20;;;;;;;;;;4968047;28;20030;-78
2023/12/23 07:00:44;;;;;;;6.18;5.88;;;;;;;;;;4946934;28;20053;-79
2023/12/23 07:03:09;;;;;;;6.55;6.25;;;;;;;;;;4965391;28;20027;-78
2023/12/23 07:05:35;;;;;;;6.55;6.25;;;;;;;;;;4964712;28;20034;-80
2023/12/23 07:08:00;;;;;;;6.05;5.75;;;;;;;;;;4947026;28;20050;-80
2023/12/23 07:10:26;;;;;;;7.07;6.68;;;;;;;;;;4968538;28;20062;-81
2023/12/23 07:12:51;;;;;;;6.50;6.10;;;;;;;;;;4947060;28;20042;-81
2023/12/23 07:15:17;;;;;;;6.70;6.40;;;;;;;;;;4922576;28;20050;-80
2023/12/23 07:17:47;;;;;;;6.40;6.10;;;;;;;;;;4946143;28;20155;-79
2023/12/23 07:20:13;;;;;;;6.22;5.93;;;;;;;;;;4968692;28;20053;-80
2023/12/23 07:22:38;;;;;;;6.40;6.10;;;;;;;;;;4971086;28;20046;-81
2023/12/23 07:25:05;;;;;;;6.55;6.25;;;;;;;;;;4966167;28;20113;-80
2023/12/23 07:27:30;;;;;;;6.95;6.47;;;;;;;;;;4965192;28;20046;-81
2023/12/23 07:29:56;;;;;;;6.32;6.03;;;;;;;;;;4970862;28;20042;-80
2023/12/23 07:32:22;;;;;;;6.70;6.40;;;;;;;;;;4959874;28;20046;-80
2023/12/23 07:34:47;;;;;;;6.50;6.10;;;;;;;;;;4958405;28;20050;-79
2023/12/23 07:37:13;;;;;;;6.53;6.22;;;;;;;;;;4971620;28;20050;-80
2023/12/23 07:39:38;;;;;;;6.88;6.35;;;;;;;;;;4965941;28;20038;-80
2023/12/23 07:42:04;;;;;;;6.68;6.28;;;;;;;;;;4964131;28;20074;-80
2023/12/23 07:44:29;;;;;;;7.05;6.65;;;;;;;;;;4942304;28;20055;-79
2023/12/23 07:46:56;;;;;;;7.03;6.63;;;;;;;;;;4932369;28;20047;-80
2023/12/23 07:49:21;;;;;;;6.50;6.20;;;;;;;;;;4952140;28;20512;-79
2023/12/23 07:51:47;;;;;;;6.32;6.03;;;;;;;;;;4955962;28;20047;-80
2023/12/23 07:54:12;;;;;;;6.82;6.47;;;;;;;;;;4960088;28;20528;-79
2023/12/23 07:56:38;;;;;;;6.95;6.55;;;;;;;;;;4925772;28;20047;-79
2023/12/23 07:59:03;;;;;;;6.85;6.55;;;;;;;;;;4958304;28;20039;-80
2023/12/23 08:01:31;;;;;;;7.90;7.40;;;;;;;;;;4964228;28;20115;-80
2023/12/23 08:03:57;;;;;;;6.82;6.45;;;;;;;;;;4960442;28;20118;-79
2023/12/23 08:06:23;;;;;;;6.80;6.50;;;;;;;;;;4968674;28;20113;-79
2023/12/23 08:08:49;;;;;;;6.65;6.25;;;;;;;;;;4946532;28;20042;-78
2023/12/23 08:11:15;;;;;;;6.40;6.10;;;;;;;;;;4961691;28;20480;-78
2023/12/23 08:13:43;;;;;;;6.28;5.97;;;;;;;;;;4961779;28;20898;-78
2023/12/23 08:16:08;;;;;;;6.40;6.10;;;;;;;;;;4945985;28;20031;-79
2023/12/23 08:18:34;;;;;;;6.78;6.38;;;;;;;;;;4964159;28;20049;-79
2023/12/23 08:21:00;;;;;;;6.75;6.30;;;;;;;;;;4961616;28;20093;-80
2023/12/23 08:23:25;;;;;;;6.78;6.38;;;;;;;;;;4938962;28;20403;-78
2023/12/23 08:25:51;;;;;;;6.72;6.32;;;;;;;;;;4961360;28;20057;-78
2023/12/23 08:28:16;;;;;;;7.18;6.78;;;;;;;;;;4970285;28;20636;-78
2023/12/23 08:30:42;;;;;;;6.40;6.10;;;;;;;;;;4969396;28;20741;-77
2023/12/23 08:33:08;;;;;;;6.85;6.45;;;;;;;;;;4961012;28;20366;-78
2023/12/23 08:35:37;;;;;;;7.72;6.50;;;;;;;;;;4946508;28;20057;-80
2023/12/23 08:38:08;;;;;;;6.75;6.35;;;;;;;;;;4941821;28;20068;-79
2023/12/23 08:40:34;;;;;;;6.97;6.60;;;;;;;;;;4971159;28;20050;-79
2023/12/23 08:42:59;;;;;;;6.85;6.45;;;;;;;;;;4938284;28;20035;-80
2023/12/23 08:45:25;;;;;;;6.88;6.45;;;;;;;;;;4963312;28;20061;-80
2023/12/23 08:47:50;;;;;;;7.00;6.55;;;;;;;;;;4965310;28;20123;-77
2023/12/23 08:50:16;;;;;;;7.15;6.78;;;;;;;;;;4946044;28;20512;-80
2023/12/23 08:52:42;;;;;;;7.82;7.35;;;;;;;;;;4963335;28;20050;-80
2023/12/23 08:55:08;;;;;;;8.10;7.60;;;;;;;;;;4960394;28;20038;-79
2023/12/23 08:57:34;;;;;;;7.15;6.75;;;;;;;;;;4966325;28;20046;-79
2023/12/23 09:00:00;;;;;;;7.38;6.97;;;;;;;;;;4967313;28;20069;-79
2023/12/23 09:02:26;;;;;;;6.45;6.15;;;;;;;;;;4966764;28;20517;-79
2023/12/23 09:04:52;;;;;;;6.45;6.05;;;;;;;;;;4955255;28;20051;-79
2023/12/23 09:07:17;;;;;;;6.47;6.18;;;;;;;;;;4928393;28;20046;-78
2023/12/23 09:09:43;;;;;;;6.40;6.10;;;;;;;;;;4961736;28;20038;-79
2023/12/23 09:12:08;;;;;;;6.45;6.15;;;;;;;;;;4949692;28;20049;-79
2023/12/23 09:14:34;;;;;;;6.55;6.20;;;;;;;;;;4961606;28;20103;-78
2023/12/23 09:17:00;;;;;;;6.68;6.25;;;;;;;;;;4964943;28;20518;-79
2023/12/23 09:19:25;;;;;;;6.38;6.07;;;;;;;;;;4965539;28;20797;-77
2023/12/23 09:21:51;;;;;;;6.18;5.88;;;;;;;;;;4968358;28;20105;-79
2023/12/23 09:24:16;;;;;;;6.13;5.82;;;;;;;;;;4960673;28;20078;-79
2023/12/23 09:26:43;;;;;;;6.47;6.18;;;;;;;;;;4963865;28;20065;-79
2023/12/23 09:29:08;;;;;;;6.32;5.93;;;;;;;;;;4962381;28;20043;-78
2023/12/23 09:31:34;;;;;;;5.80;5.50;;;;;;;;;;4945595;28;20054;-79
2023/12/23 09:34:00;;;;;;;6.30;6.00;;;;;;;;;;4954738;28;20693;-79
2023/12/23 09:36:26;;;;;;;6.30;6.00;;;;;;;;;;4929493;28;20053;-78
2023/12/23 09:38:51;;;;;;;6.38;6.07;;;;;;;;;;4945128;28;20070;-79
2023/12/23 09:41:17;;;;;;;6.38;6.07;;;;;;;;;;4957032;28;20058;-79
2023/12/23 09:43:43;;;;;;;6.45;6.15;;;;;;;;;;4946909;28;20050;-78
2023/12/23 09:46:16;;;;;;;6.85;6.47;;;;;;;;;;4960301;28;20031;-79
2023/12/23 09:48:43;;;;;;;6.57;6.20;;;;;;;;;;4973971;28;20043;-78
2023/12/23 09:51:10;;;;;;;7.05;6.65;;;;;;;;;;4970308;28;20030;-79
2023/12/23 09:53:45;;;;;;;6.63;6.22;;;;;;;;;;4952748;28;20492;-80
2023/12/23 09:56:11;;;;;;;6.57;6.28;;;;;;;;;;4963587;28;20042;-79
2023/12/23 09:58:36;;;;;;;6.35;6.05;;;;;;;;;;4966512;28;20221;-77
2023/12/23 10:01:02;;;;;;;6.60;6.30;;;;;;;;;;4952904;28;20052;-78
2023/12/23 10:03:28;;;;;;;6.30;6.00;;;;;;;;;;4959039;28;20062;-79
2023/12/23 10:06:01;;;;;;;6.57;6.28;;;;;;;;;;4957982;28;20039;-79
2023/12/23 10:08:28;;;;;;;6.47;6.18;;;;;;;;;;4944501;28;20038;-79
2023/12/23 10:10:53;;;;;;;5.88;5.57;;;;;;;;;;4938243;28;20488;-79
2023/12/23 10:13:20;;;;;;;6.00;5.70;;;;;;;;;;4949175;28;20031;-78
2023/12/23 10:15:46;;;;;;;6.30;6.00;;;;;;;;;;4968488;28;20448;-79
2023/12/23 10:18:12;;;;;;;6.07;5.78;;;;;;;;;;4956137;28;20428;-80
2023/12/23 10:20:38;;;;;;;6.43;6.13;;;;;;;;;;4959624;28;20047;-78
2023/12/23 10:23:04;;;;;;;6.53;6.13;;;;;;;;;;4968252;28;20042;-79
2023/12/23 10:25:30;;;;;;;6.25;5.95;;;;;;;;;;4932155;28;20039;-79
2023/12/23 10:28:03;;;;;;;6.47;6.18;;;;;;;;;;4964804;28;20114;-79
2023/12/23 10:30:33;;;;;;;6.43;6.13;;;;;;;;;;4921395;28;20027;-79
2023/12/23 10:33:05;;;;;;;6.25;5.95;;;;;;;;;;4955222;28;20046;-79
2023/12/23 10:35:41;;;;;;;6.72;6.38;;;;;;;;;;4967997;28;20039;-79
2023/12/23 10:38:09;;;;;;;6.20;5.90;;;;;;;;;;4963152;28;20046;-79
2023/12/23 10:40:34;;;;;;;6.57;6.28;;;;;;;;;;4975056;28;20039;-79
2023/12/23 10:43:01;;;;;;;6.18;5.88;;;;;;;;;;4959541;28;20035;-79
2023/12/23 10:45:29;;;;;;;6.43;6.13;;;;;;;;;;4971625;28;20140;-79
2023/12/23 10:47:56;;;;;;;6.20;5.90;;;;;;;;;;4975941;28;20031;-80
2023/12/23 10:50:22;;;;;;;7.45;6.95;;;;;;;;;;4954992;28;20046;-80
2023/12/23 10:52:52;;;;;;;6.82;6.53;;;;;;;;;;4973699;28;20067;-78
2023/12/23 10:55:25;;;;;;;6.50;6.20;;;;;;;;;;4976761;28;20042;-78
2023/12/23 10:58:00;;;;;;;6.50;6.20;;;;;;;;;;4966512;28;20201;-80
2023/12/23 11:04:07;;;;;;;6.43;6.13;;;;;;;;;;4964652;28;20542;-81
2023/12/23 11:06:47;;;;;;;6.55;6.25;;;;;;;;;;4998374;28;20069;-81
2023/12/23 11:09:14;;;;;;;6.75;6.35;;;;;;;;;;4981461;28;20061;-80
2023/12/23 11:11:42;;;;;;;6.38;6.07;;;;;;;;;;4992546;28;20077;-80
2023/12/23 11:14:28;;;;;;;6.55;6.25;;;;;;;;;;4992243;28;20191;-80
2023/12/23 11:16:56;;;;;;;6.45;6.15;;;;;;;;;;4986319;28;20041;-81
2023/12/23 11:19:22;;;;;;;6.68;6.28;;;;;;;;;;4971657;28;20404;-81
2023/12/23 11:21:47;;;;;;;6.53;6.22;;;;;;;;;;4988593;28;20054;-80
2023/12/23 11:24:33;;;;;;;6.82;6.43;;;;;;;;;;4987362;28;20163;-82
2023/12/23 11:27:01;;;;;;;7.15;6.75;;;;;;;;;;4983428;28;20065;-79
2023/12/23 11:29:28;;;;;;;7.18;6.70;;;;;;;;;;4990295;28;20062;-81
2023/12/23 11:32:17;;;;;;;6.63;6.32;;;;;;;;;;4993728;28;20061;-78
2023/12/23 11:34:44;;;;;;;;;;;;;;;;;;4988457;28;20038;-80
2023/12/23 11:37:10;;;;;;;6.78;6.47;;;;;;;;;;4994188;28;19909;-79
2023/12/23 11:39:36;;;;;;;6.72;6.43;;;;;;;;;;4983986;28;20801;-78
2023/12/23 11:42:02;;;;;;;6.78;6.45;;;;;;;;;;4981793;28;20046;-79
2023/12/23 11:44:28;;;;;;;8.32;7.82;;;;;;;;;;4963990;28;20046;-79
2023/12/23 11:46:55;;;;;;;6.63;6.32;;;;;;;;;;4960504;28;20042;-79
2023/12/23 11:49:20;;;;;;;7.25;6.85;;;;;;;;;;4961441;28;20099;-79
2023/12/23 11:51:46;;;;;;;6.50;6.20;;;;;;;;;;4962199;28;20043;-79
2023/12/23 11:54:12;;;;;;;6.75;6.45;;;;;;;;;;4965649;28;20035;-77
2023/12/23 11:56:38;;;;;;;6.55;6.25;;;;;;;;;;4961819;28;20092;-78
2023/12/23 11:59:05;;;;;;;6.63;6.30;;;;;;;;;;4959503;28;20034;-78
2023/12/23 12:01:33;;;;;;;7.35;6.95;;;;;;;;;;4959980;28;20041;-79
2023/12/23 12:03:59;;;;;;;6.50;6.10;;;;;;;;;;4961348;28;20039;-79
2023/12/23 12:06:26;;;;;;;6.72;6.43;;;;;;;;;;4957053;28;20598;-78
2023/12/23 12:08:53;;;;;;;6.80;6.30;;;;;;;;;;4943505;28;20108;-79
2023/12/23 12:11:19;;;;;;;6.60;6.30;;;;;;;;;;4957931;28;20042;-78
2023/12/23 12:13:46;;;;;;;6.35;6.05;;;;;;;;;;4947800;28;20148;-79
2023/12/23 12:16:11;;;;;;;6.47;6.07;;;;;;;;;;4957667;28;20039;-78
2023/12/23 12:18:40;;;;;;;6.75;6.45;;;;;;;;;;4961075;28;20381;-79
2023/12/23 12:21:06;;;;;;;6.80;6.40;;;;;;;;;;4961528;28;20118;-79
2023/12/23 12:23:31;;;;;;;6.80;6.50;;;;;;;;;;4967212;28;20134;-78
2023/12/23 12:25:57;;;;;;;6.30;6.00;;;;;;;;;;4952783;28;20049;-79
2023/12/23 12:28:23;;;;;;;6.78;6.43;;;;;;;;;;4963698;28;20094;-78
2023/12/23 12:30:49;;;;;;;6.80;6.40;;;;;;;;;;4944239;28;20043;-77
2023/12/23 12:33:15;;;;;;;7.00;6.60;;;;;;;;;;4962310;28;20097;-78
2023/12/23 12:35:41;;;;;;;6.75;6.30;;;;;;;;;;4950754;28;20049;-78
2023/12/23 12:38:10;;;;;;;6.82;6.43;;;;;;;;;;4967052;28;20049;-78
2023/12/23 12:40:36;;;;;;;6.85;6.40;;;;;;;;;;4962807;28;20119;-78
2023/12/23 12:43:05;;;;;;;6.80;6.40;;;;;;;;;;4960930;28;20198;-78
2023/12/23 12:45:38;;;;;;;6.72;6.32;;;;;;;;;;4947386;28;20039;-78
2023/12/23 12:48:10;;;;;;;11.85;6.38;;;;;;;;;;4960628;28;20109;-78
2023/12/23 12:50:41;;;;;;;7.10;6.70;;;;;;;;;;4928737;28;20047;-77
2023/12/23 12:53:07;;;;;;;6.85;6.38;;;;;;;;;;4950729;28;20038;-78
2023/12/23 12:55:33;;;;;;;6.45;6.15;;;;;;;;;;4963289;28;20049;-79
2023/12/23 12:57:58;;;;;;;6.95;6.55;;;;;;;;;;4959708;28;20050;-79
2023/12/23 13:00:26;;;;;;;7.13;6.72;;;;;;;;;;4942834;28;20122;-79
2023/12/23 13:02:51;;;;;;;6.82;6.50;;;;;;;;;;4970196;28;20046;-79
2023/12/23 13:05:17;;;;;;;6.93;6.53;;;;;;;;;;4961114;28;20035;-78
2023/12/23 13:07:43;;;;;;;6.50;6.18;;;;;;;;;;4959792;28;20734;-79
2023/12/23 13:10:08;;;;;;;7.18;6.78;;;;;;;;;;4965532;28;20719;-79
2023/12/23 13:12:34;;;;;;;6.50;6.20;;;;;;;;;;4961235;28;20070;-78
2023/12/23 13:15:01;;;;;;;6.78;6.38;;;;;;;;;;4962469;28;20117;-79
2023/12/23 13:17:26;;;;;;;6.70;6.40;;;;;;;;;;4957559;28;20082;-78
2023/12/23 13:19:52;;;;;;;7.20;6.80;;;;;;;;;;4941859;28;20145;-78
2023/12/23 13:22:17;;;;;;;6.90;6.50;;;;;;;;;;4944499;28;20043;-78
2023/12/23 13:24:43;;;;;;;6.50;6.20;;;;;;;;;;4958984;28;20035;-79
2023/12/23 13:27:08;;;;;;;7.05;6.65;;;;;;;;;;4939283;28;20046;-77
2023/12/23 13:29:35;;;;;;;6.97;6.57;;;;;;;;;;4966663;28;20046;-78
2023/12/23 13:32:01;;;;;;;7.18;6.68;;;;;;;;;;4943369;28;20038;-78
2023/12/23 13:34:26;;;;;;;6.60;6.20;;;;;;;;;;4968886;28;20105;-78
2023/12/23 13:36:52;;;;;;;6.10;5.80;;;;;;;;;;4964699;28;20049;-78
2023/12/23 13:39:17;;;;;;;6.10;5.80;;;;;;;;;;4969023;28;20483;-78
2023/12/23 13:41:43;;;;;;;5.90;5.60;;;;;;;;;;4966284;28;20063;-78
2023/12/23 13:44:08;;;;;;;6.25;5.95;;;;;;;;;;4964981;28;20159;-79
2023/12/23 13:46:35;;;;;;;6.22;5.93;;;;;;;;;;4965866;28;20035;-78
2023/12/23 13:49:00;;;;;;;5.65;5.35;;;;;;;;;;4967980;28;20034;-78
2023/12/23 13:51:26;;;;;;;6.47;6.18;;;;;;;;;;4963140;28;20508;-79
2023/12/23 13:53:51;;;;;;;6.75;6.22;;;;;;;;;;4952444;28;20042;-78
2023/12/23 13:56:17;;;;;;;7.10;6.70;;;;;;;;;;4968929;28;20057;-77
2023/12/23 13:58:43;;;;;;;6.40;6.10;;;;;;;;;;4972222;28;20186;-78
2023/12/23 14:01:08;;;;;;;7.10;6.70;;;;;;;;;;4961083;28;20440;-78
2023/12/23 14:03:34;;;;;;;6.00;5.70;;;;;;;;;;4967721;28;20525;-77
2023/12/23 14:06:00;;;;;;;6.55;6.25;;;;;;;;;;4966533;28;20093;-79
2023/12/23 14:08:25;;;;;;;6.80;6.50;;;;;;;;;;4963661;28;20711;-78
2023/12/23 14:10:51;;;;;;;6.43;6.13;;;;;;;;;;4963750;28;20042;-78
2023/12/23 14:13:17;;;;;;;6.63;6.32;;;;;;;;;;4960426;28;20122;-78
2023/12/23 14:15:42;;;;;;;7.00;6.60;;;;;;;;;;4964275;28;20194;-78
2023/12/23 14:18:09;;;;;;;7.00;6.55;;;;;;;;;;4963863;28;20039;-79
2023/12/23 14:20:35;;;;;;;6.75;6.45;;;;;;;;;;4959870;28;20598;-79
2023/12/23 14:23:01;;;;;;;6.65;6.35;;;;;;;;;;4961416;28;20042;-79
2023/12/23 14:25:27;;;;;;;6.68;6.38;;;;;;;;;;4948902;28;20031;-79
2023/12/23 14:27:54;;;;;;;6.63;6.32;;;;;;;;;;4963803;28;20627;-78
2023/12/23 14:30:20;;;;;;;6.88;6.47;;;;;;;;;;4962775;28;20042;-78
2023/12/23 14:32:45;;;;;;;6.60;6.30;;;;;;;;;;4962726;28;20039;-77
2023/12/23 14:35:11;;;;;;;6.95;6.55;;;;;;;;;;4965345;28;20047;-79
2023/12/23 14:37:37;;;;;;;6.50;6.20;;;;;;;;;;4960304;28;20044;-78
2023/12/23 14:40:04;;;;;;;6.53;6.22;;;;;;;;;;4964120;28;20092;-78
2023/12/23 14:42:30;;;;;;;6.30;6.00;;;;;;;;;;4960157;28;20715;-79